Time;durP1;ratioP1;P1;durP2;ratioP2;P2;SDS_P1;SDS_P2;PMS_P1;PMS_P2;Temp;Humidity;BMP_temperature;BMP_pressure;BME280_temperature;BME280_humidity;BME280_pressure;Samples;Min_cycle;Max_cycle;Signal;HPM_P1;HPM_P2
2022/07/24 00:00:28;;;;;;;9.05;3.28;;;;;;;-144.47;51.01;53243.41;4971307;28;20031;-62
2022/07/24 00:02:54;;;;;;;8.45;3.33;;;;;;;-144.47;52.04;53269.22;4970900;28;20093;-66
2022/07/24 00:05:19;;;;;;;11.88;3.42;;;;;;;-144.47;52.17;53271.22;4969596;28;20081;-68
2022/07/24 00:07:44;;;;;;;17.20;3.53;;;;;;;-144.47;51.82;53293.06;4961751;28;20031;-63
2022/07/24 00:10:11;;;;;;;14.27;3.30;;;;;;;-144.47;51.77;53251.34;4976129;28;20031;-68
2022/07/24 00:12:37;;;;;;;10.52;2.78;;;;;;;-144.47;51.86;53261.28;4969416;28;20503;-65
2022/07/24 00:15:04;;;;;;;7.75;3.00;;;;;;;-144.47;52.50;53251.34;4979899;28;20049;-67
2022/07/24 00:17:29;;;;;;;6.13;3.03;;;;;;;-144.47;52.96;53233.47;4992208;28;20061;-69
2022/07/24 00:19:55;;;;;;;16.27;4.32;;;;;;;-144.47;53.78;53269.22;4972669;28;20034;-68
2022/07/24 00:22:20;;;;;;;14.75;5.07;;;;;;;-144.47;54.17;53259.31;4972066;28;21074;-69
2022/07/24 00:24:45;;;;;;;13.35;5.55;;;;;;;-144.47;54.60;53269.22;4971981;28;20037;-64
2022/07/24 00:27:11;;;;;;;12.57;5.15;;;;;;;-144.47;54.85;53269.22;4971511;28;20058;-64
2022/07/24 00:29:36;;;;;;;11.23;4.60;;;;;;;-144.47;54.97;53283.13;4954498;28;20042;-67
2022/07/24 00:32:02;;;;;;;12.48;5.75;;;;;;;-144.47;54.82;53283.13;4971907;28;20077;-65
2022/07/24 00:34:27;;;;;;;12.70;4.32;;;;;;;-144.47;54.61;53275.19;4970848;28;20022;-64
2022/07/24 00:36:52;;;;;;;16.35;4.53;;;;;;;-144.47;54.50;53301.03;4970869;28;20018;-68
2022/07/24 00:39:18;;;;;;;7.25;3.38;;;;;;;-144.47;54.14;53285.13;4966015;28;20657;-65
2022/07/24 00:41:43;;;;;;;12.20;4.07;;;;;;;-144.47;53.98;53269.22;4972443;28;20401;-66
2022/07/24 00:44:09;;;;;;;12.75;3.92;;;;;;;-144.47;54.90;53277.19;4972217;28;20026;-67
2022/07/24 00:46:36;;;;;;;12.80;3.35;;;;;;;-144.47;54.35;53285.13;4971329;28;20026;-66
2022/07/24 00:49:05;;;;;;;6.32;3.35;;;;;;;-144.47;54.59;53245.41;4974851;28;20749;-67
2022/07/24 00:51:30;;;;;;;;;;;;;;;-144.47;54.49;53257.31;4972409;28;20064;-68
2022/07/24 00:53:56;;;;;;;11.18;3.80;;;;;;;-144.47;54.73;53287.13;4969511;28;19941;-65
2022/07/24 00:56:21;;;;;;;9.05;3.28;;;;;;;-144.47;54.55;53287.13;4960241;28;20027;-65
2022/07/24 00:58:47;;;;;;;7.75;3.38;;;;;;;-144.47;53.91;53271.22;4971684;28;20069;-65
2022/07/24 01:01:14;;;;;;;6.05;3.20;;;;;;;-144.47;54.60;53245.41;4972032;28;20030;-69
2022/07/24 01:03:39;;;;;;;10.10;3.97;;;;;;;-144.47;54.44;53308.97;4971390;28;20022;-67
2022/07/24 01:06:06;;;;;;;10.60;3.05;;;;;;;-144.47;54.32;53277.19;4971965;28;20030;-65
2022/07/24 01:08:32;;;;;;;9.45;3.10;;;;;;;-144.47;54.28;53269.22;4970546;28;20034;-67
2022/07/24 01:10:58;;;;;;;6.82;3.20;;;;;;;-144.47;54.32;53265.25;4971657;28;20038;-66
2022/07/24 01:13:23;;;;;;;14.43;4.10;;;;;;;-144.47;55.04;53312.94;4971220;28;20018;-68
2022/07/24 01:15:48;;;;;;;6.07;3.30;;;;;;;-144.47;55.62;53253.34;4970838;28;20596;-68
2022/07/24 01:18:14;;;;;;;14.43;4.13;;;;;;;-144.47;55.77;53285.13;4969376;28;20027;-67
2022/07/24 01:20:39;;;;;;;11.68;4.72;;;;;;;-144.47;55.79;53277.19;4969560;28;20046;-67
2022/07/24 01:23:05;;;;;;;17.40;5.72;;;;;;;-144.47;56.74;53261.28;4970689;28;20544;-66
2022/07/24 01:25:30;;;;;;;20.75;7.15;;;;;;;-144.47;57.01;53273.22;4971174;28;20102;-64
2022/07/24 01:27:57;;;;;;;10.60;5.07;;;;;;;-144.47;56.92;53275.19;4968988;28;20026;-66
2022/07/24 01:30:22;;;;;;;12.10;4.30;;;;;;;-144.47;56.19;53257.31;4966260;28;20362;-67
2022/07/24 01:32:48;;;;;;;9.38;3.50;;;;;;;-144.47;55.01;53289.09;4970301;28;20480;-66
2022/07/24 01:35:13;;;;;;;8.77;3.60;;;;;;;-144.47;54.80;53237.44;4970745;28;20050;-68
2022/07/24 01:37:38;;;;;;;13.63;3.53;;;;;;;-144.47;54.83;53287.13;4969382;28;20050;-66
2022/07/24 01:40:04;;;;;;;8.40;3.60;;;;;;;-144.47;55.48;53257.31;4970871;28;20503;-64
2022/07/24 01:42:30;;;;;;;18.83;6.90;;;;;;;-144.47;56.88;53277.19;4970667;28;20112;-68
2022/07/24 01:44:55;;;;;;;15.73;5.72;;;;;;;-144.47;56.89;53273.22;4970869;28;20105;-64
2022/07/24 01:47:21;;;;;;;11.93;5.20;;;;;;;-144.47;57.16;53308.97;4969804;28;20037;-66
2022/07/24 01:49:46;;;;;;;12.02;5.18;;;;;;;-144.47;57.31;53305.00;4968206;28;20070;-65
2022/07/24 01:52:11;;;;;;;14.80;4.68;;;;;;;-144.47;57.31;53293.06;4969848;28;20022;-67
2022/07/24 01:54:37;;;;;;;15.52;4.80;;;;;;;-144.47;57.28;53289.09;4970747;28;20031;-66
2022/07/24 01:57:02;;;;;;;12.00;3.45;;;;;;;-144.47;55.78;53283.13;4969987;28;20026;-65
2022/07/24 01:59:28;;;;;;;4.15;2.67;;;;;;;-144.47;55.40;53263.28;4969931;28;20027;-67
2022/07/24 02:01:53;;;;;;;9.00;3.45;;;;;;;-144.47;55.42;53265.25;4970465;28;20059;-64
2022/07/24 02:04:18;;;;;;;7.63;3.30;;;;;;;-144.47;55.03;53303.00;4969572;28;20102;-67
2022/07/24 02:06:44;;;;;;;7.20;3.47;;;;;;;-144.47;55.97;53277.19;4963886;28;20045;-68
2022/07/24 02:09:09;;;;;;;7.97;3.10;;;;;;;-144.47;55.62;53291.09;4967292;28;20365;-65
2022/07/24 02:11:35;;;;;;;9.13;3.80;;;;;;;-144.47;56.89;53271.22;4970041;28;20022;-64
2022/07/24 02:14:00;;;;;;;12.07;3.85;;;;;;;-144.47;57.36;53308.97;4967760;28;20108;-63
2022/07/24 02:16:26;;;;;;;14.43;4.55;;;;;;;-144.47;57.39;53308.97;4969334;28;20070;-65
2022/07/24 02:18:52;;;;;;;7.50;3.45;;;;;;;-144.47;57.48;53291.09;4969984;28;20038;-62
2022/07/24 02:21:17;;;;;;;8.95;4.32;;;;;;;-144.47;57.64;53271.22;4969696;28;20026;-66
2022/07/24 02:23:43;;;;;;;12.18;4.20;;;;;;;-144.47;57.48;53269.22;4969151;28;20547;-63
2022/07/24 02:26:08;;;;;;;9.18;4.47;;;;;;;-144.47;57.68;53283.13;4969576;28;20035;-66
2022/07/24 02:28:34;;;;;;;9.13;3.90;;;;;;;-144.47;57.45;53253.34;4969084;28;20022;-63
2022/07/24 02:30:59;;;;;;;9.43;3.63;;;;;;;-144.47;57.58;53247.38;4984928;28;20026;-67
2022/07/24 02:33:25;;;;;;;11.73;4.28;;;;;;;-144.47;57.83;53265.25;4970281;28;20018;-64
2022/07/24 02:35:50;;;;;;;11.38;4.03;;;;;;;-144.47;58.26;53289.09;4970124;28;20029;-66
2022/07/24 02:38:15;;;;;;;10.70;4.07;;;;;;;-144.47;58.35;53287.13;4968724;28;20026;-64
2022/07/24 02:40:41;;;;;;;10.80;3.78;;;;;;;-144.47;58.53;53289.09;4969996;28;20643;-63
2022/07/24 02:43:06;;;;;;;10.35;3.78;;;;;;;-144.47;58.40;53293.06;4969061;28;20030;-68
2022/07/24 02:45:31;;;;;;;11.98;5.10;;;;;;;-144.47;59.17;53283.13;4969627;28;20030;-63
2022/07/24 02:47:57;;;;;;;10.23;3.92;;;;;;;-144.47;59.40;53305.00;4969047;28;20030;-67
2022/07/24 02:50:29;;;;;;;13.82;5.30;;;;;;;-144.47;59.63;53295.06;4967262;28;20068;-63
2022/07/24 02:52:54;;;;;;;9.57;4.22;;;;;;;-144.47;59.69;53273.22;4969015;28;20089;-64
2022/07/24 02:55:20;;;;;;;8.52;3.97;;;;;;;-144.47;59.67;53336.78;4969583;28;20413;-66
2022/07/24 02:57:45;;;;;;;17.52;5.90;;;;;;;-144.47;60.00;53299.03;4969294;28;20026;-65
2022/07/24 03:00:14;;;;;;;13.57;4.47;;;;;;;-144.47;60.02;53285.13;4969904;28;20025;-67
2022/07/24 03:02:40;;;;;;;12.80;4.47;;;;;;;-144.47;59.96;53324.84;4970353;28;20026;-67
2022/07/24 03:05:06;;;;;;;9.45;4.10;;;;;;;-144.47;60.52;53312.94;4969062;28;20160;-66
2022/07/24 03:07:32;;;;;;;10.25;4.03;;;;;;;-144.47;60.54;53289.09;4968374;28;20031;-64
2022/07/24 03:09:57;;;;;;;10.05;4.85;;;;;;;-144.47;61.13;53318.91;4969954;28;20165;-68
2022/07/24 03:12:23;;;;;;;8.50;4.03;;;;;;;-144.47;61.44;53308.97;4969255;28;20019;-65
2022/07/24 03:14:48;;;;;;;12.50;4.80;;;;;;;-144.47;60.82;53318.91;4968829;28;20489;-64
2022/07/24 03:17:13;;;;;;;9.52;4.97;;;;;;;-144.47;60.71;53293.06;4969565;28;20014;-63
2022/07/24 03:19:39;;;;;;;12.60;5.05;;;;;;;-144.47;60.96;53295.06;4968434;28;20113;-64
2022/07/24 03:22:04;;;;;;;12.18;4.70;;;;;;;-144.47;60.83;53308.97;4969502;28;20026;-66
2022/07/24 03:24:29;;;;;;;12.48;6.20;;;;;;;-144.47;60.84;53318.91;4970237;28;20039;-66
2022/07/24 03:26:55;;;;;;;14.93;7.45;;;;;;;-144.47;60.84;53342.72;4970043;28;20023;-68
2022/07/24 03:29:20;;;;;;;15.60;7.63;;;;;;;-144.47;60.83;53316.91;4975607;28;20372;-65
2022/07/24 03:31:46;;;;;;;16.58;7.95;;;;;;;-144.47;60.87;53283.13;4970119;28;20019;-66
2022/07/24 03:34:12;;;;;;;17.02;7.32;;;;;;;-144.47;61.01;53334.78;4970123;28;20051;-67
2022/07/24 03:36:37;;;;;;;18.42;7.88;;;;;;;-144.47;60.93;53299.03;4997327;23;20043;-66
2022/07/24 03:39:04;;;;;;;18.20;6.70;;;;;;;-144.47;61.04;53277.19;4971326;28;20033;-67
2022/07/24 03:41:29;;;;;;;13.32;6.10;;;;;;;-144.47;60.96;53299.03;4992020;28;20021;-66
2022/07/24 03:43:55;;;;;;;17.25;6.32;;;;;;;-144.47;61.03;53297.03;4988395;28;20381;-66
2022/07/24 03:46:20;;;;;;;19.70;8.82;;;;;;;-144.47;61.33;53312.94;4982950;28;20022;-66
2022/07/24 03:48:45;;;;;;;20.52;9.98;;;;;;;-144.47;61.24;53310.94;4974761;28;20023;-67
2022/07/24 03:51:11;;;;;;;27.05;13.48;;;;;;;-144.47;61.42;53277.19;4970792;28;20087;-67
2022/07/24 03:53:36;;;;;;;28.45;15.25;;;;;;;-144.47;61.56;53301.03;4971948;28;20109;-68
2022/07/24 03:56:09;;;;;;;32.38;14.27;;;;;;;-144.47;61.09;53281.16;4982970;28;20023;-68
2022/07/24 03:58:34;;;;;;;26.30;14.55;;;;;;;-144.47;61.19;53305.00;4991266;28;20535;-67
2022/07/24 04:01:03;;;;;;;24.88;13.70;;;;;;;-144.47;61.04;53275.19;4981500;28;20102;-70
2022/07/24 04:03:29;;;;;;;25.83;13.85;;;;;;;-144.47;61.01;53305.00;4976555;28;20088;-68
2022/07/24 04:05:54;;;;;;;18.35;10.70;;;;;;;-144.47;60.87;53285.13;4992777;28;20032;-66
2022/07/24 04:08:20;;;;;;;16.52;9.25;;;;;;;-144.47;60.39;53324.84;4969097;28;20023;-66
2022/07/24 04:10:45;;;;;;;16.77;8.07;;;;;;;-144.47;60.22;53334.78;4983289;28;20019;-66
2022/07/24 04:13:11;;;;;;;17.40;11.02;;;;;;;-144.47;60.27;53308.97;4984931;28;20391;-66
2022/07/24 04:15:36;;;;;;;18.58;11.48;;;;;;;-144.47;60.76;53251.34;4991811;28;20424;-68
2022/07/24 04:18:02;;;;;;;31.77;13.63;;;;;;;-144.47;60.73;53306.97;4977549;28;20026;-66
2022/07/24 04:20:27;;;;;;;25.30;14.65;;;;;;;-144.47;60.84;53305.00;4980184;28;20062;-66
2022/07/24 04:22:53;;;;;;;24.88;15.60;;;;;;;-144.47;60.88;53305.00;4984261;28;20023;-68
2022/07/24 04:25:18;;;;;;;27.77;15.85;;;;;;;-144.47;61.31;53279.16;4972253;28;20034;-70
2022/07/24 04:27:44;;;;;;;22.35;12.50;;;;;;;-144.47;60.62;53348.69;4971369;28;20530;-67
2022/07/24 04:30:10;;;;;;;22.70;11.70;;;;;;;-144.47;60.48;53261.28;4981622;28;20049;-67
2022/07/24 04:32:36;;;;;;;14.65;10.45;;;;;;;-144.47;60.42;53316.91;4973909;28;20018;-66
2022/07/24 04:35:01;;;;;;;16.77;8.98;;;;;;;-144.47;60.50;53310.94;4980499;28;20780;-67
2022/07/24 04:37:27;;;;;;;13.38;8.52;;;;;;;-144.47;60.56;53293.06;4985692;28;20138;-67
2022/07/24 04:39:52;;;;;;;23.85;9.07;;;;;;;-144.47;60.36;53320.88;4982593;28;20030;-67
2022/07/24 04:42:17;;;;;;;16.95;8.65;;;;;;;-144.47;60.42;53297.03;4974294;28;20029;-68
2022/07/24 04:44:43;;;;;;;14.80;9.73;;;;;;;-144.47;60.37;53277.19;4981459;28;20115;-67
2022/07/24 04:47:08;;;;;;;18.33;10.25;;;;;;;-144.47;60.06;53303.00;4973139;28;20099;-66
2022/07/24 04:49:34;;;;;;;16.27;9.70;;;;;;;-144.47;59.92;53310.94;4971626;28;20023;-65
2022/07/24 04:51:59;;;;;;;16.15;9.52;;;;;;;-144.47;59.80;53265.25;4970569;28;20082;-67
2022/07/24 04:54:24;;;;;;;15.65;9.68;;;;;;;-144.47;59.62;53324.84;4972057;28;20439;-67
2022/07/24 04:56:50;;;;;;;19.38;10.40;;;;;;;-144.47;59.53;53310.94;4962247;28;20088;-65
2022/07/24 04:59:15;;;;;;;16.48;9.55;;;;;;;-144.47;59.21;53269.22;4980630;28;20035;-66
2022/07/24 05:01:41;;;;;;;12.25;8.30;;;;;;;-144.47;58.67;53289.09;4971572;28;20027;-66
2022/07/24 05:04:06;;;;;;;12.55;8.52;;;;;;;-144.47;58.55;53269.22;4981394;28;20026;-68
2022/07/24 05:06:32;;;;;;;14.90;8.40;;;;;;;-144.47;58.37;53281.16;4989686;28;20026;-66
2022/07/24 05:08:57;;;;;;;14.30;7.25;;;;;;;-144.47;58.11;53247.38;4980343;28;20081;-67
2022/07/24 05:11:22;;;;;;;9.68;6.22;;;;;;;-144.47;58.06;53269.22;4975285;28;20447;-65
2022/07/24 05:13:48;;;;;;;12.50;6.70;;;;;;;-144.47;57.88;53295.06;4974941;28;20457;-67
2022/07/24 05:16:13;;;;;;;10.88;6.40;;;;;;;-144.47;57.63;53269.22;4974196;28;20018;-66
2022/07/24 05:18:39;;;;;;;10.27;5.43;;;;;;;-144.47;57.40;53281.16;4980412;28;20086;-64
2022/07/24 05:21:04;;;;;;;16.65;6.40;;;;;;;-144.47;57.63;53273.22;4971705;28;20030;-65
2022/07/24 05:23:29;;;;;;;10.73;5.72;;;;;;;-144.47;57.17;53287.13;4970917;28;20373;-65
2022/07/24 05:25:55;;;;;;;11.63;6.32;;;;;;;-144.47;57.13;53285.13;4971037;28;20046;-66
2022/07/24 05:28:20;;;;;;;16.42;7.00;;;;;;;-144.47;56.88;53281.16;4965778;28;20050;-67
2022/07/24 05:30:45;;;;;;;9.07;5.45;;;;;;;-144.47;56.36;53259.31;4982402;28;20018;-66
2022/07/24 05:33:11;;;;;;;11.05;5.18;;;;;;;-144.47;56.37;53257.31;4970654;28;20067;-65
2022/07/24 05:35:36;;;;;;;11.10;5.05;;;;;;;-144.47;56.19;53277.19;4970291;28;20084;-65
2022/07/24 05:38:02;;;;;;;10.77;4.95;;;;;;;-144.47;55.84;53235.47;4965297;28;20074;-66
2022/07/24 05:40:27;;;;;;;7.85;4.10;;;;;;;-144.47;56.00;53249.38;4982275;28;20081;-65
2022/07/24 05:42:52;;;;;;;8.20;4.22;;;;;;;-144.47;55.78;53301.03;4977052;28;20018;-67
2022/07/24 05:45:18;;;;;;;6.22;3.60;;;;;;;-144.47;54.28;53287.13;4974224;28;20026;-65
2022/07/24 05:47:43;;;;;;;9.13;4.10;;;;;;;-144.47;54.55;53277.19;4970024;28;20023;-67
2022/07/24 05:50:11;;;;;;;6.53;3.70;;;;;;;-144.47;53.62;53251.34;4970047;28;20089;-67
2022/07/24 05:52:37;;;;;;;15.43;4.70;;;;;;;-144.47;52.97;53223.56;4969678;28;20465;-66
2022/07/24 05:55:03;;;;;;;15.52;5.78;;;;;;;-144.47;54.09;53265.25;4971378;28;20031;-65
2022/07/24 05:57:28;;;;;;;15.05;6.30;;;;;;;-144.47;53.88;53241.44;4980713;28;20445;-66
2022/07/24 05:59:54;;;;;;;9.52;5.97;;;;;;;-144.47;53.58;53277.19;4983331;28;20053;-65
2022/07/24 06:02:19;;;;;;;12.32;6.80;;;;;;;-144.47;53.35;53273.22;4970350;28;20419;-66
2022/07/24 06:04:44;;;;;;;20.88;4.70;;;;;;;-144.47;52.51;53279.16;4983292;28;20042;-65
2022/07/24 06:07:10;;;;;;;9.15;5.00;;;;;;;-144.47;52.56;53257.31;4970150;28;20437;-67
2022/07/24 06:09:36;;;;;;;12.05;6.47;;;;;;;-144.47;52.76;53253.34;4953071;28;20057;-66
2022/07/24 06:12:02;;;;;;;13.60;5.82;;;;;;;-144.47;52.07;53297.03;4971832;28;20034;-66
2022/07/24 06:14:28;;;;;;;10.05;4.70;;;;;;;-144.47;51.63;53237.44;4971130;28;20034;-66
2022/07/24 06:16:53;;;;;;;8.93;3.80;;;;;;;-144.47;51.94;53285.13;4977557;28;20030;-68
2022/07/24 06:19:19;;;;;;;7.72;3.72;;;;;;;-144.47;52.34;53295.06;4974018;28;20110;-68
2022/07/24 06:21:44;;;;;;;9.05;4.00;;;;;;;-144.47;51.94;53233.47;4973519;28;20027;-65
2022/07/24 06:24:09;;;;;;;8.30;3.85;;;;;;;-144.47;52.07;53261.28;4964788;28;20077;-66
2022/07/24 06:26:35;;;;;;;7.43;3.83;;;;;;;-144.47;51.52;53263.28;4962828;28;20631;-65
2022/07/24 06:29:00;;;;;;;15.45;3.92;;;;;;;-144.47;51.34;53207.66;4966883;28;20027;-65
2022/07/24 06:31:25;;;;;;;7.38;3.67;;;;;;;-144.47;51.45;53269.22;4963154;28;20077;-65
2022/07/24 06:33:51;;;;;;;8.35;4.45;;;;;;;-144.47;51.55;53223.56;4967805;28;20039;-65
2022/07/24 06:36:16;;;;;;;7.78;3.60;;;;;;;-144.47;49.90;53239.44;4966923;28;20031;-66
2022/07/24 06:38:42;;;;;;;14.75;3.63;;;;;;;-144.47;49.89;53239.44;4968457;28;20023;-67
2022/07/24 06:41:07;;;;;;;11.93;3.63;;;;;;;-144.47;49.78;53225.53;4976586;28;20022;-65
2022/07/24 06:43:32;;;;;;;7.03;3.30;;;;;;;-144.47;50.09;53251.34;4972533;28;20581;-67
2022/07/24 06:45:57;;;;;;;6.20;3.28;;;;;;;-144.47;49.75;53263.28;4973317;28;20027;-65
2022/07/24 06:48:23;;;;;;;6.22;3.47;;;;;;;-144.47;49.56;53225.53;4971664;28;20066;-68
2022/07/24 06:50:48;;;;;;;9.38;3.40;;;;;;;-144.47;49.51;53201.69;4970215;28;20461;-64
2022/07/24 06:53:14;;;;;;;11.10;3.90;;;;;;;-144.47;49.56;53249.38;4968287;28;20031;-65
2022/07/24 06:55:39;;;;;;;7.40;3.47;;;;;;;-144.47;49.20;53219.56;4969560;28;20021;-66
2022/07/24 06:58:04;;;;;;;12.02;3.63;;;;;;;-144.47;49.13;53221.56;4974601;28;20613;-64
2022/07/24 07:00:30;;;;;;;7.32;3.25;;;;;;;-144.47;49.36;53245.41;4966926;28;20432;-66
2022/07/24 07:02:55;;;;;;;11.43;3.40;;;;;;;-144.47;48.35;53231.50;4954352;28;20464;-66
2022/07/24 07:05:21;;;;;;;6.00;2.90;;;;;;;-144.47;48.83;53213.63;4967951;28;20035;-66
2022/07/24 07:07:46;;;;;;;5.30;2.55;;;;;;;-144.47;48.59;53215.59;4975522;28;20030;-65
2022/07/24 07:10:12;;;;;;;5.28;2.58;;;;;;;-144.47;48.79;53273.22;4975139;28;20029;-66
2022/07/24 07:12:37;;;;;;;6.80;3.03;;;;;;;-144.47;48.66;53227.53;4972607;28;20035;-64
2022/07/24 07:15:04;;;;;;;8.52;3.10;;;;;;;-144.47;48.46;53225.53;4972110;28;20022;-66
2022/07/24 07:17:30;;;;;;;6.40;2.97;;;;;;;-144.47;47.00;53215.59;4979939;28;20026;-66
2022/07/24 07:19:55;;;;;;;9.95;3.20;;;;;;;-144.47;47.07;53195.75;4975925;28;20022;-65
2022/07/24 07:22:20;;;;;;;6.53;2.58;;;;;;;-144.47;46.72;53221.56;4975837;28;20034;-65
2022/07/24 07:24:46;;;;;;;7.13;3.25;;;;;;;-144.47;47.09;53243.41;4978228;28;20093;-65
2022/07/24 07:27:11;;;;;;;8.23;2.55;;;;;;;-144.47;47.32;53213.63;4973713;28;20054;-67
2022/07/24 07:29:37;;;;;;;4.20;2.10;;;;;;;-144.47;47.21;53187.78;4972545;28;20030;-66
2022/07/24 07:32:02;;;;;;;11.20;2.92;;;;;;;-144.47;46.62;53219.56;4974313;28;20548;-66
2022/07/24 07:34:27;;;;;;;3.15;1.95;;;;;;;-144.47;46.56;53195.75;4972703;28;20197;-66
2022/07/24 07:36:53;;;;;;;9.80;2.17;;;;;;;-144.47;44.96;53213.63;4970573;28;20101;-66
2022/07/24 07:39:18;;;;;;;11.93;2.42;;;;;;;-144.47;44.36;53239.44;4977496;28;20019;-67
2022/07/24 07:41:44;;;;;;;5.25;1.70;;;;;;;-144.47;43.86;53181.84;4972610;28;20081;-66
2022/07/24 07:44:09;;;;;;;9.27;2.97;;;;;;;-144.47;44.16;53219.56;4975611;28;20061;-68
2022/07/24 07:46:35;;;;;;;4.25;2.10;;;;;;;-144.47;44.01;53191.78;4972385;28;20512;-67
2022/07/24 07:49:00;;;;;;;6.00;2.10;;;;;;;-144.47;43.94;53209.66;4976823;28;20017;-68
2022/07/24 07:51:25;;;;;;;3.40;1.60;;;;;;;-144.47;43.60;53189.78;4978754;28;20030;-66
2022/07/24 07:53:51;;;;;;;4.75;2.10;;;;;;;-144.47;43.62;53193.75;4970916;28;20081;-68
2022/07/24 07:56:16;;;;;;;7.32;2.10;;;;;;;-144.47;43.33;53171.91;4972574;28;20077;-66
2022/07/24 07:58:42;;;;;;;4.15;1.80;;;;;;;-144.47;43.31;53189.78;4970438;28;20079;-66
2022/07/24 08:01:07;;;;;;;5.93;2.03;;;;;;;-144.47;42.89;53177.88;4974249;28;20038;-67
2022/07/24 08:03:32;;;;;;;7.30;1.70;;;;;;;-144.47;42.97;53205.66;4969692;28;20030;-67
2022/07/24 08:05:59;;;;;;;6.30;1.70;;;;;;;-144.47;42.72;53154.03;4973264;28;20057;-67
2022/07/24 08:08:24;;;;;;;6.00;1.88;;;;;;;-144.47;42.60;53223.56;4969814;28;20029;-67
2022/07/24 08:10:50;;;;;;;7.13;1.58;;;;;;;-144.47;42.67;53197.72;4972663;28;20015;-68
2022/07/24 08:13:17;;;;;;;4.25;1.90;;;;;;;-144.47;42.37;53187.78;4971766;28;20027;-68
2022/07/24 08:15:43;;;;;;;4.78;1.90;;;;;;;-144.47;41.96;53207.66;4980218;28;20532;-66
2022/07/24 08:18:08;;;;;;;3.60;1.50;;;;;;;-144.47;42.04;53205.66;4970740;28;20105;-68
2022/07/24 08:20:33;;;;;;;8.18;2.65;;;;;;;-144.47;41.88;53187.78;4977790;28;20460;-68
2022/07/24 08:22:59;;;;;;;4.35;1.80;;;;;;;-144.47;41.70;53181.84;4970841;28;20022;-68
2022/07/24 08:25:26;;;;;;;6.45;1.80;;;;;;;-144.47;41.63;53187.78;4979232;28;20514;-68
2022/07/24 08:27:51;;;;;;;4.95;2.00;;;;;;;-144.47;41.73;53163.97;4982835;28;20026;-69
2022/07/24 08:30:16;;;;;;;5.47;1.90;;;;;;;-144.47;41.42;53161.97;4970264;28;20015;-67
2022/07/24 08:32:43;;;;;;;4.97;2.22;;;;;;;-144.47;41.23;53175.88;4971270;28;20038;-67
2022/07/24 08:35:09;;;;;;;4.78;1.75;;;;;;;-144.47;41.13;53181.84;4971703;28;20023;-67
2022/07/24 08:37:40;;;;;;;9.20;2.13;;;;;;;-144.47;41.18;53177.88;4968586;28;20503;-68
2022/07/24 08:40:07;;;;;;;3.92;1.70;;;;;;;-144.47;41.00;53183.81;4972188;28;20046;-67
2022/07/24 08:42:35;;;;;;;5.10;1.77;;;;;;;-144.47;41.03;53209.66;4972346;28;20027;-66
2022/07/24 08:45:00;;;;;;;3.35;1.55;;;;;;;-144.47;41.08;53189.78;4970840;28;20530;-69
2022/07/24 08:47:26;;;;;;;4.45;1.70;;;;;;;-144.47;41.01;53181.84;4970761;28;20027;-67
2022/07/24 08:49:57;;;;;;;3.40;1.63;;;;;;;-144.47;40.81;53191.78;4972034;28;20069;-67
2022/07/24 08:52:22;;;;;;;2.53;1.60;;;;;;;-144.47;40.61;53152.03;4970680;28;20027;-69
2022/07/24 08:54:48;;;;;;;4.18;1.58;;;;;;;-144.47;40.51;53179.84;4971323;28;20523;-69
2022/07/24 08:57:13;;;;;;;5.72;1.80;;;;;;;-144.47;40.73;53169.91;4965878;28;20091;-66
2022/07/24 08:59:39;;;;;;;6.40;1.83;;;;;;;-144.47;40.29;53171.91;4970676;28;20465;-69
2022/07/24 09:02:04;;;;;;;5.93;1.75;;;;;;;-144.47;40.18;53169.91;4970645;28;20153;-69
2022/07/24 09:04:33;;;;;;;3.13;1.42;;;;;;;-144.47;40.29;53185.81;4971692;28;20037;-67
2022/07/24 09:07:00;;;;;;;7.75;1.90;;;;;;;-144.47;40.04;53199.72;4969710;28;20366;-66
2022/07/24 09:09:26;;;;;;;3.65;1.70;;;;;;;-144.47;40.05;53161.97;4971349;28;20072;-67
2022/07/24 09:12:05;;;;;;;6.25;1.67;;;;;;;-144.47;39.61;53152.03;4970107;28;20525;-68
2022/07/24 09:14:34;;;;;;;;;;;;;;;-144.47;39.49;53161.97;4971835;28;20110;-67
2022/07/24 09:17:05;;;;;;;5.55;1.58;;;;;;;-144.47;39.50;53163.97;4970693;28;19964;-67
2022/07/24 09:19:31;;;;;;;4.00;1.77;;;;;;;-144.47;39.41;53187.78;4971827;28;20392;-67
2022/07/24 09:21:57;;;;;;;4.63;1.70;;;;;;;-144.47;39.56;53150.06;4972896;28;20021;-68
2022/07/24 09:24:22;;;;;;;5.10;1.73;;;;;;;-144.47;39.36;53158.00;4973168;28;20042;-67
2022/07/24 09:26:56;;;;;;;7.10;2.25;;;;;;;-144.47;39.06;53161.97;4970193;28;20022;-68
2022/07/24 09:29:24;;;;;;;5.82;2.10;;;;;;;-144.47;38.69;53169.91;4970335;28;20019;-68
2022/07/24 09:31:57;;;;;;;6.75;1.90;;;;;;;-144.47;38.58;53126.22;4970018;28;20093;-68
2022/07/24 09:34:24;;;;;;;6.40;1.60;;;;;;;-144.47;38.72;53173.88;4970645;28;20167;-66
2022/07/24 09:37:05;;;;;;;6.30;2.22;;;;;;;-144.47;38.82;53213.63;4969753;28;20053;-69
2022/07/24 09:39:33;;;;;;;3.88;1.88;;;;;;;-144.47;38.59;53179.84;4970612;28;20031;-69
2022/07/24 09:42:01;;;;;;;6.55;2.20;;;;;;;-144.47;38.32;53167.94;4970470;28;20483;-70
2022/07/24 09:44:28;;;;;;;6.43;2.25;;;;;;;-144.47;38.25;53161.97;4968486;28;20376;-69
2022/07/24 09:47:20;;;;;;;5.75;2.38;;;;;;;-144.47;38.09;53128.22;4960172;28;20102;-69
2022/07/24 09:49:45;;;;;;;5.88;2.25;;;;;;;-144.47;38.30;53106.34;4970766;28;20030;-70
2022/07/24 09:52:14;;;;;;;7.85;2.28;;;;;;;-144.47;38.13;53169.91;4970263;28;20061;-68
2022/07/24 09:54:48;;;;;;;3.75;1.92;;;;;;;-144.47;37.75;53146.09;4971164;28;20023;-66
2022/07/24 09:57:15;;;;;;;5.60;2.00;;;;;;;-144.47;37.79;53146.09;4968130;28;20031;-68
2022/07/24 09:59:42;;;;;;;7.00;2.28;;;;;;;-144.47;37.81;53098.41;4969260;28;20049;-69
2022/07/24 10:02:12;;;;;;;5.60;2.00;;;;;;;-144.47;37.33;53142.09;4970363;28;20023;-69
2022/07/24 10:04:38;;;;;;;6.07;2.35;;;;;;;-144.47;35.90;53138.13;4970116;28;20526;-69
2022/07/24 10:07:07;;;;;;;4.15;1.92;;;;;;;-144.47;36.43;53165.94;4968832;28;20123;-68
2022/07/24 10:09:34;;;;;;;9.73;2.17;;;;;;;-144.47;36.37;53148.06;4970604;28;20027;-70
2022/07/24 10:12:03;;;;;;;3.72;2.03;;;;;;;-144.47;36.03;53128.22;4970318;28;20034;-69
2022/07/24 10:14:29;;;;;;;7.35;2.28;;;;;;;-144.47;36.09;53142.09;4985470;28;20031;-70
2022/07/24 10:17:05;;;;;;;4.93;2.03;;;;;;;-144.47;35.88;53124.22;4969529;28;20416;-67
2022/07/24 10:19:45;;;;;;;5.07;2.20;;;;;;;-144.47;35.64;53150.06;4968991;28;20110;-71
2022/07/24 10:22:14;;;;;;;5.18;1.90;;;;;;;-144.47;36.07;53128.22;4968091;28;20101;-68
2022/07/24 10:25:00;;;;;;;4.10;2.08;;;;;;;-144.47;35.75;53116.28;4970070;28;20093;-67
2022/07/24 10:27:34;;;;;;;8.40;2.00;;;;;;;-144.47;35.71;53138.13;4969805;28;20034;-67
2022/07/24 10:30:04;;;;;;;4.68;1.95;;;;;;;-144.47;35.36;53140.13;4970284;28;20026;-68
2022/07/24 10:32:32;;;;;;;6.35;2.38;;;;;;;-144.47;35.38;53134.16;4970201;28;20034;-69
2022/07/24 10:35:06;;;;;;;6.03;2.03;;;;;;;-144.47;35.44;53114.31;4968712;28;20061;-70
2022/07/24 10:37:41;;;;;;;10.48;2.60;;;;;;;-144.47;34.92;53144.09;4967691;28;20084;-68
2022/07/24 10:40:22;;;;;;;6.78;1.80;;;;;;;-144.47;34.12;53120.25;4970562;28;20442;-67
2022/07/24 10:43:05;;;;;;;5.85;2.35;;;;;;;-144.47;33.60;53112.31;4969910;28;20500;-69
2022/07/24 10:45:36;;;;;;;5.65;2.22;;;;;;;-144.47;32.80;53110.31;4970139;28;20035;-68
2022/07/24 10:48:20;;;;;;;5.60;2.00;;;;;;;-144.47;33.73;53116.28;4969420;28;20027;-67
2022/07/24 10:51:07;;;;;;;5.60;2.25;;;;;;;-144.47;33.75;53106.34;4969718;28;20463;-69
2022/07/24 10:53:35;;;;;;;4.95;2.55;;;;;;;-144.47;33.99;53142.09;4969559;28;20045;-67
2022/07/24 10:56:19;;;;;;;5.70;2.22;;;;;;;-144.47;34.22;53108.34;4968093;28;20057;-68
2022/07/24 10:59:02;;;;;;;6.63;2.20;;;;;;;-144.47;34.13;53130.19;4969780;28;20053;-70
2022/07/24 11:01:34;;;;;;;4.47;2.42;;;;;;;-144.47;34.00;53148.06;4969216;28;20085;-67
2022/07/24 11:04:01;;;;;;;6.40;2.50;;;;;;;-144.47;33.79;53124.22;4969364;28;20019;-69
2022/07/24 11:06:59;;;;;;;7.72;2.30;;;;;;;-144.47;33.44;53124.22;4967054;28;20054;-68
2022/07/24 11:09:26;;;;;;;6.43;2.30;;;;;;;-144.47;33.65;53078.53;4969125;28;20031;-67
2022/07/24 11:11:51;;;;;;;13.05;2.40;;;;;;;-144.47;33.39;53106.34;4969473;28;20125;-66